sensor_id;sensor_type;location;lat;lon;timestamp;P1;P2;P0
67892;PMS7003;54688;52.376;16.744;2023-07-13T00:01:41;1;1;
67892;PMS7003;54688;52.376;16.744;2023-07-13T00:04:44;2;2;
67892;PMS7003;54688;52.376;16.744;2023-07-13T00:07:46;2;2;
67892;PMS7003;54688;52.376;16.744;2023-07-13T00:10:51;2;2;
67892;PMS7003;54688;52.376;16.744;2023-07-13T00:13:54;1;1;
67892;PMS7003;54688;52.376;16.744;2023-07-13T00:16:57;2;2;
67892;PMS7003;54688;52.376;16.744;2023-07-13T00:19:59;3;1;
67892;PMS7003;54688;52.376;16.744;2023-07-13T00:23:02;3;1;
67892;PMS7003;54688;52.376;16.744;2023-07-13T00:26:06;2;2;
67892;PMS7003;54688;52.376;16.744;2023-07-13T00:29:09;3;2;
67892;PMS7003;54688;52.376;16.744;2023-07-13T00:32:11;3;3;
67892;PMS7003;54688;52.376;16.744;2023-07-13T00:35:14;3;1;
67892;PMS7003;54688;52.376;16.744;2023-07-13T00:38:17;4;3;
67892;PMS7003;54688;52.376;16.744;2023-07-13T00:41:20;3;2;
67892;PMS7003;54688;52.376;16.744;2023-07-13T00:44:22;5;3;
67892;PMS7003;54688;52.376;16.744;2023-07-13T00:47:24;3;2;
67892;PMS7003;54688;52.376;16.744;2023-07-13T00:50:26;3;3;
67892;PMS7003;54688;52.376;16.744;2023-07-13T00:53:31;5;2;
67892;PMS7003;54688;52.376;16.744;2023-07-13T00:56:35;1;1;
67892;PMS7003;54688;52.376;16.744;2023-07-13T00:59:40;3;3;
67892;PMS7003;54688;52.376;16.744;2023-07-13T01:02:45;3;3;
67892;PMS7003;54688;52.376;16.744;2023-07-13T01:05:49;5;4;
67892;PMS7003;54688;52.376;16.744;2023-07-13T01:08:52;3;3;
67892;PMS7003;54688;52.376;16.744;2023-07-13T01:11:54;2;2;
67892;PMS7003;54688;52.376;16.744;2023-07-13T01:14:58;1;1;
67892;PMS7003;54688;52.376;16.744;2023-07-13T01:17:59;4;3;
67892;PMS7003;54688;52.376;16.744;2023-07-13T01:21:04;4;4;
67892;PMS7003;54688;52.376;16.744;2023-07-13T01:24:07;2;2;
67892;PMS7003;54688;52.376;16.744;2023-07-13T01:27:11;5;2;
67892;PMS7003;54688;52.376;16.744;2023-07-13T01:30:13;4;3;
67892;PMS7003;54688;52.376;16.744;2023-07-13T01:33:17;1;1;
67892;PMS7003;54688;52.376;16.744;2023-07-13T01:36:19;3;2;
67892;PMS7003;54688;52.376;16.744;2023-07-13T01:39:23;5;3;
67892;PMS7003;54688;52.376;16.744;2023-07-13T01:42:25;3;3;
67892;PMS7003;54688;52.376;16.744;2023-07-13T01:45:28;2;2;
67892;PMS7003;54688;52.376;16.744;2023-07-13T01:48:30;1;1;
67892;PMS7003;54688;52.376;16.744;2023-07-13T01:51:33;3;3;
67892;PMS7003;54688;52.376;16.744;2023-07-13T01:54:35;3;3;
67892;PMS7003;54688;52.376;16.744;2023-07-13T01:57:38;3;3;
67892;PMS7003;54688;52.376;16.744;2023-07-13T02:00:40;2;2;
67892;PMS7003;54688;52.376;16.744;2023-07-13T02:03:43;2;2;
67892;PMS7003;54688;52.376;16.744;2023-07-13T02:06:45;2;0;
67892;PMS7003;54688;52.376;16.744;2023-07-13T02:09:47;2;2;
67892;PMS7003;54688;52.376;16.744;2023-07-13T02:12:50;2;2;
67892;PMS7003;54688;52.376;16.744;2023-07-13T02:15:52;2;2;
67892;PMS7003;54688;52.376;16.744;2023-07-13T02:18:55;2;2;
67892;PMS7003;54688;52.376;16.744;2023-07-13T02:21:57;2;2;
67892;PMS7003;54688;52.376;16.744;2023-07-13T02:25:00;5;4;
67892;PMS7003;54688;52.376;16.744;2023-07-13T02:28:03;3;2;
67892;PMS7003;54688;52.376;16.744;2023-07-13T02:31:06;3;3;
67892;PMS7003;54688;52.376;16.744;2023-07-13T02:34:08;3;2;
67892;PMS7003;54688;52.376;16.744;2023-07-13T02:37:10;5;3;
67892;PMS7003;54688;52.376;16.744;2023-07-13T02:40:12;4;4;
67892;PMS7003;54688;52.376;16.744;2023-07-13T02:43:15;3;3;
67892;PMS7003;54688;52.376;16.744;2023-07-13T02:49:17;4;4;
67892;PMS7003;54688;52.376;16.744;2023-07-13T02:52:20;5;4;
67892;PMS7003;54688;52.376;16.744;2023-07-13T02:55:22;4;4;
67892;PMS7003;54688;52.376;16.744;2023-07-13T02:58:25;4;3;
67892;PMS7003;54688;52.376;16.744;2023-07-13T03:01:27;4;4;
67892;PMS7003;54688;52.376;16.744;2023-07-13T03:04:30;9;4;
67892;PMS7003;54688;52.376;16.744;2023-07-13T03:07:33;5;5;
67892;PMS7003;54688;52.376;16.744;2023-07-13T03:10:35;8;5;
67892;PMS7003;54688;52.376;16.744;2023-07-13T03:13:38;5;5;
67892;PMS7003;54688;52.376;16.744;2023-07-13T03:16:40;7;7;
67892;PMS7003;54688;52.376;16.744;2023-07-13T03:19:42;5;5;
67892;PMS7003;54688;52.376;16.744;2023-07-13T03:22:44;6;5;
67892;PMS7003;54688;52.376;16.744;2023-07-13T03:25:46;6;4;
67892;PMS7003;54688;52.376;16.744;2023-07-13T03:28:49;7;5;
67892;PMS7003;54688;52.376;16.744;2023-07-13T03:31:51;11;6;
67892;PMS7003;54688;52.376;16.744;2023-07-13T03:34:54;6;6;
67892;PMS7003;54688;52.376;16.744;2023-07-13T03:37:55;5;5;
67892;PMS7003;54688;52.376;16.744;2023-07-13T03:40:57;7;5;
67892;PMS7003;54688;52.376;16.744;2023-07-13T03:44:00;9;7;
67892;PMS7003;54688;52.376;16.744;2023-07-13T03:47:03;5;5;
67892;PMS7003;54688;52.376;16.744;2023-07-13T03:50:05;7;7;
67892;PMS7003;54688;52.376;16.744;2023-07-13T03:53:07;9;6;
67892;PMS7003;54688;52.376;16.744;2023-07-13T03:56:10;8;7;
67892;PMS7003;54688;52.376;16.744;2023-07-13T03:59:12;8;6;
67892;PMS7003;54688;52.376;16.744;2023-07-13T04:02:15;9;8;
67892;PMS7003;54688;52.376;16.744;2023-07-13T04:05:17;9;8;
67892;PMS7003;54688;52.376;16.744;2023-07-13T04:08:19;7;7;
67892;PMS7003;54688;52.376;16.744;2023-07-13T04:11:23;6;6;
67892;PMS7003;54688;52.376;16.744;2023-07-13T04:14:25;9;9;
67892;PMS7003;54688;52.376;16.744;2023-07-13T04:17:28;8;8;
67892;PMS7003;54688;52.376;16.744;2023-07-13T04:20:30;11;8;
67892;PMS7003;54688;52.376;16.744;2023-07-13T04:23:33;9;9;
67892;PMS7003;54688;52.376;16.744;2023-07-13T04:26:35;8;8;
67892;PMS7003;54688;52.376;16.744;2023-07-13T04:29:38;11;9;
67892;PMS7003;54688;52.376;16.744;2023-07-13T04:32:40;8;8;
67892;PMS7003;54688;52.376;16.744;2023-07-13T04:35:43;8;7;
67892;PMS7003;54688;52.376;16.744;2023-07-13T04:38:45;11;8;
67892;PMS7003;54688;52.376;16.744;2023-07-13T04:41:48;11;9;
67892;PMS7003;54688;52.376;16.744;2023-07-13T04:44:51;12;9;
67892;PMS7003;54688;52.376;16.744;2023-07-13T04:47:53;12;9;
67892;PMS7003;54688;52.376;16.744;2023-07-13T04:50:56;8;8;
67892;PMS7003;54688;52.376;16.744;2023-07-13T04:54:01;10;10;
67892;PMS7003;54688;52.376;16.744;2023-07-13T04:57:04;10;10;
67892;PMS7003;54688;52.376;16.744;2023-07-13T05:00:07;12;10;
67892;PMS7003;54688;52.376;16.744;2023-07-13T05:03:09;8;8;
67892;PMS7003;54688;52.376;16.744;2023-07-13T05:06:12;11;9;
67892;PMS7003;54688;52.376;16.744;2023-07-13T05:09:14;12;10;
67892;PMS7003;54688;52.376;16.744;2023-07-13T05:12:16;11;10;
67892;PMS7003;54688;52.376;16.744;2023-07-13T05:15:21;13;12;
67892;PMS7003;54688;52.376;16.744;2023-07-13T05:18:23;12;10;
67892;PMS7003;54688;52.376;16.744;2023-07-13T05:21:26;8;8;
67892;PMS7003;54688;52.376;16.744;2023-07-13T05:24:28;13;10;
67892;PMS7003;54688;52.376;16.744;2023-07-13T05:27:31;11;10;
67892;PMS7003;54688;52.376;16.744;2023-07-13T05:30:33;11;11;
67892;PMS7003;54688;52.376;16.744;2023-07-13T05:33:36;11;11;
67892;PMS7003;54688;52.376;16.744;2023-07-13T05:36:38;10;10;
67892;PMS7003;54688;52.376;16.744;2023-07-13T05:39:41;11;9;
67892;PMS7003;54688;52.376;16.744;2023-07-13T05:42:43;11;11;
67892;PMS7003;54688;52.376;16.744;2023-07-13T05:45:45;14;11;
67892;PMS7003;54688;52.376;16.744;2023-07-13T05:48:48;12;11;
67892;PMS7003;54688;52.376;16.744;2023-07-13T05:51:50;13;11;
67892;PMS7003;54688;52.376;16.744;2023-07-13T05:57:51;13;10;
67892;PMS7003;54688;52.376;16.744;2023-07-13T06:01:00;12;9;
67892;PMS7003;54688;52.376;16.744;2023-07-13T06:04:03;10;8;
67892;PMS7003;54688;52.376;16.744;2023-07-13T06:07:05;11;11;
67892;PMS7003;54688;52.376;16.744;2023-07-13T06:10:09;12;12;
67892;PMS7003;54688;52.376;16.744;2023-07-13T06:13:10;11;11;
67892;PMS7003;54688;52.376;16.744;2023-07-13T06:16:13;11;11;
67892;PMS7003;54688;52.376;16.744;2023-07-13T06:19:15;10;8;
67892;PMS7003;54688;52.376;16.744;2023-07-13T06:22:17;10;9;
67892;PMS7003;54688;52.376;16.744;2023-07-13T06:25:20;11;10;
67892;PMS7003;54688;52.376;16.744;2023-07-13T06:28:22;8;8;
67892;PMS7003;54688;52.376;16.744;2023-07-13T06:31:24;8;8;
67892;PMS7003;54688;52.376;16.744;2023-07-13T06:34:26;10;10;
67892;PMS7003;54688;52.376;16.744;2023-07-13T06:37:29;10;9;
67892;PMS7003;54688;52.376;16.744;2023-07-13T06:40:31;9;8;
67892;PMS7003;54688;52.376;16.744;2023-07-13T06:43:33;12;10;
67892;PMS7003;54688;52.376;16.744;2023-07-13T06:46:36;12;10;
67892;PMS7003;54688;52.376;16.744;2023-07-13T06:49:38;12;9;
67892;PMS7003;54688;52.376;16.744;2023-07-13T06:52:41;12;12;
67892;PMS7003;54688;52.376;16.744;2023-07-13T06:55:44;8;8;
67892;PMS7003;54688;52.376;16.744;2023-07-13T06:58:46;13;9;
67892;PMS7003;54688;52.376;16.744;2023-07-13T07:01:48;9;9;
67892;PMS7003;54688;52.376;16.744;2023-07-13T07:04:50;14;11;
67892;PMS7003;54688;52.376;16.744;2023-07-13T07:07:54;11;10;
67892;PMS7003;54688;52.376;16.744;2023-07-13T07:10:56;15;14;
67892;PMS7003;54688;52.376;16.744;2023-07-13T07:13:59;9;9;
67892;PMS7003;54688;52.376;16.744;2023-07-13T07:17:01;14;13;
67892;PMS7003;54688;52.376;16.744;2023-07-13T07:20:05;9;9;
67892;PMS7003;54688;52.376;16.744;2023-07-13T07:23:07;10;9;
67892;PMS7003;54688;52.376;16.744;2023-07-13T07:26:09;9;9;
67892;PMS7003;54688;52.376;16.744;2023-07-13T07:29:11;8;8;
67892;PMS7003;54688;52.376;16.744;2023-07-13T07:32:13;8;8;
67892;PMS7003;54688;52.376;16.744;2023-07-13T07:35:15;9;9;
67892;PMS7003;54688;52.376;16.744;2023-07-13T07:38:18;13;8;
67892;PMS7003;54688;52.376;16.744;2023-07-13T07:41:20;10;7;
67892;PMS7003;54688;52.376;16.744;2023-07-13T07:44:23;10;10;
67892;PMS7003;54688;52.376;16.744;2023-07-13T07:47:25;8;8;
67892;PMS7003;54688;52.376;16.744;2023-07-13T07:50:28;7;7;
67892;PMS7003;54688;52.376;16.744;2023-07-13T07:53:30;7;6;
67892;PMS7003;54688;52.376;16.744;2023-07-13T07:56:32;8;8;
67892;PMS7003;54688;52.376;16.744;2023-07-13T07:59:36;10;7;
67892;PMS7003;54688;52.376;16.744;2023-07-13T08:02:37;9;6;
67892;PMS7003;54688;52.376;16.744;2023-07-13T08:05:39;10;8;
67892;PMS7003;54688;52.376;16.744;2023-07-13T08:08:41;9;9;
67892;PMS7003;54688;52.376;16.744;2023-07-13T08:11:44;7;7;
67892;PMS7003;54688;52.376;16.744;2023-07-13T08:14:50;7;7;
67892;PMS7003;54688;52.376;16.744;2023-07-13T08:17:53;6;6;
67892;PMS7003;54688;52.376;16.744;2023-07-13T08:20:55;11;8;
67892;PMS7003;54688;52.376;16.744;2023-07-13T08:23:58;9;8;
67892;PMS7003;54688;52.376;16.744;2023-07-13T08:27:00;5;5;
67892;PMS7003;54688;52.376;16.744;2023-07-13T08:30:05;6;6;
67892;PMS7003;54688;52.376;16.744;2023-07-13T08:33:07;8;6;
67892;PMS7003;54688;52.376;16.744;2023-07-13T08:36:09;7;7;
67892;PMS7003;54688;52.376;16.744;2023-07-13T08:39:12;7;7;
67892;PMS7003;54688;52.376;16.744;2023-07-13T08:42:21;5;5;
67892;PMS7003;54688;52.376;16.744;2023-07-13T08:45:29;11;7;
67892;PMS7003;54688;52.376;16.744;2023-07-13T08:48:35;9;8;
67892;PMS7003;54688;52.376;16.744;2023-07-13T08:51:42;12;7;
67892;PMS7003;54688;52.376;16.744;2023-07-13T08:54:49;7;6;
67892;PMS7003;54688;52.376;16.744;2023-07-13T08:57:56;6;6;
67892;PMS7003;54688;52.376;16.744;2023-07-13T09:01:08;8;5;
67892;PMS7003;54688;52.376;16.744;2023-07-13T09:04:16;7;6;
67892;PMS7003;54688;52.376;16.744;2023-07-13T09:07:29;5;5;
67892;PMS7003;54688;52.376;16.744;2023-07-13T09:10:41;8;8;
67892;PMS7003;54688;52.376;16.744;2023-07-13T09:13:51;6;6;
67892;PMS7003;54688;52.376;16.744;2023-07-13T09:16:58;5;5;
67892;PMS7003;54688;52.376;16.744;2023-07-13T09:20:08;9;6;
67892;PMS7003;54688;52.376;16.744;2023-07-13T09:23:14;5;5;
67892;PMS7003;54688;52.376;16.744;2023-07-13T09:26:19;5;5;
67892;PMS7003;54688;52.376;16.744;2023-07-13T09:29:27;6;6;
67892;PMS7003;54688;52.376;16.744;2023-07-13T09:32:30;8;6;
67892;PMS7003;54688;52.376;16.744;2023-07-13T09:35:34;8;7;
67892;PMS7003;54688;52.376;16.744;2023-07-13T09:38:36;12;9;
67892;PMS7003;54688;52.376;16.744;2023-07-13T09:41:43;8;6;
67892;PMS7003;54688;52.376;16.744;2023-07-13T09:47:46;6;6;
67892;PMS7003;54688;52.376;16.744;2023-07-13T09:50:48;6;6;
67892;PMS7003;54688;52.376;16.744;2023-07-13T09:53:50;7;7;
67892;PMS7003;54688;52.376;16.744;2023-07-13T09:59:55;7;7;
67892;PMS7003;54688;52.376;16.744;2023-07-13T10:03:00;8;7;
67892;PMS7003;54688;52.376;16.744;2023-07-13T10:06:12;7;5;
67892;PMS7003;54688;52.376;16.744;2023-07-13T10:09:16;7;7;
67892;PMS7003;54688;52.376;16.744;2023-07-13T10:12:18;6;4;
67892;PMS7003;54688;52.376;16.744;2023-07-13T10:15:23;8;7;
67892;PMS7003;54688;52.376;16.744;2023-07-13T10:18:26;5;5;
67892;PMS7003;54688;52.376;16.744;2023-07-13T10:21:32;6;5;
67892;PMS7003;54688;52.376;16.744;2023-07-13T10:24:37;7;6;
67892;PMS7003;54688;52.376;16.744;2023-07-13T10:27:40;5;5;
67892;PMS7003;54688;52.376;16.744;2023-07-13T10:30:45;5;5;
67892;PMS7003;54688;52.376;16.744;2023-07-13T10:33:48;10;7;
67892;PMS7003;54688;52.376;16.744;2023-07-13T10:36:51;8;7;
67892;PMS7003;54688;52.376;16.744;2023-07-13T10:39:55;9;7;
67892;PMS7003;54688;52.376;16.744;2023-07-13T10:43:00;7;7;
67892;PMS7003;54688;52.376;16.744;2023-07-13T10:46:07;7;7;
67892;PMS7003;54688;52.376;16.744;2023-07-13T10:49:10;5;5;
67892;PMS7003;54688;52.376;16.744;2023-07-13T10:52:41;7;6;
67892;PMS7003;54688;52.376;16.744;2023-07-13T10:55:56;5;5;
67892;PMS7003;54688;52.376;16.744;2023-07-13T11:01:58;9;6;
67892;PMS7003;54688;52.376;16.744;2023-07-13T11:05:20;5;4;
67892;PMS7003;54688;52.376;16.744;2023-07-13T11:08:32;4;2;
67892;PMS7003;54688;52.376;16.744;2023-07-13T11:11:37;2;2;
67892;PMS7003;54688;52.376;16.744;2023-07-13T11:14:42;4;4;
67892;PMS7003;54688;52.376;16.744;2023-07-13T11:17:50;2;2;
67892;PMS7003;54688;52.376;16.744;2023-07-13T11:20:52;2;2;
67892;PMS7003;54688;52.376;16.744;2023-07-13T11:24:15;3;3;
67892;PMS7003;54688;52.376;16.744;2023-07-13T11:27:27;2;2;
67892;PMS7003;54688;52.376;16.744;2023-07-13T11:30:36;3;3;
67892;PMS7003;54688;52.376;16.744;2023-07-13T11:33:51;2;2;
67892;PMS7003;54688;52.376;16.744;2023-07-13T11:36:56;3;3;
67892;PMS7003;54688;52.376;16.744;2023-07-13T11:39:58;4;2;
67892;PMS7003;54688;52.376;16.744;2023-07-13T11:43:01;3;3;
67892;PMS7003;54688;52.376;16.744;2023-07-13T11:46:21;4;3;
67892;PMS7003;54688;52.376;16.744;2023-07-13T11:49:26;7;4;
67892;PMS7003;54688;52.376;16.744;2023-07-13T11:52:32;7;4;
67892;PMS7003;54688;52.376;16.744;2023-07-13T11:55:38;2;2;
67892;PMS7003;54688;52.376;16.744;2023-07-13T11:58:41;4;4;
67892;PMS7003;54688;52.376;16.744;2023-07-13T12:01:46;6;4;
67892;PMS7003;54688;52.376;16.744;2023-07-13T12:04:49;4;4;
67892;PMS7003;54688;52.376;16.744;2023-07-13T12:07:52;4;4;
67892;PMS7003;54688;52.376;16.744;2023-07-13T12:11:00;3;3;
67892;PMS7003;54688;52.376;16.744;2023-07-13T12:14:04;2;2;
67892;PMS7003;54688;52.376;16.744;2023-07-13T12:17:09;3;3;
67892;PMS7003;54688;52.376;16.744;2023-07-13T12:20:21;2;2;
67892;PMS7003;54688;52.376;16.744;2023-07-13T12:23:26;2;2;
67892;PMS7003;54688;52.376;16.744;2023-07-13T12:26:31;3;3;
67892;PMS7003;54688;52.376;16.744;2023-07-13T12:29:33;3;3;
67892;PMS7003;54688;52.376;16.744;2023-07-13T12:32:36;3;3;
67892;PMS7003;54688;52.376;16.744;2023-07-13T12:35:40;3;3;
67892;PMS7003;54688;52.376;16.744;2023-07-13T12:38:45;2;2;
67892;PMS7003;54688;52.376;16.744;2023-07-13T12:41:48;4;4;
67892;PMS7003;54688;52.376;16.744;2023-07-13T12:44:53;4;4;
67892;PMS7003;54688;52.376;16.744;2023-07-13T12:50:55;3;3;
67892;PMS7003;54688;52.376;16.744;2023-07-13T12:54:11;2;2;
67892;PMS7003;54688;52.376;16.744;2023-07-13T12:57:16;2;2;
67892;PMS7003;54688;52.376;16.744;2023-07-13T13:00:23;2;2;
67892;PMS7003;54688;52.376;16.744;2023-07-13T13:03:29;4;3;
67892;PMS7003;54688;52.376;16.744;2023-07-13T13:06:32;3;3;
67892;PMS7003;54688;52.376;16.744;2023-07-13T13:09:34;2;2;
67892;PMS7003;54688;52.376;16.744;2023-07-13T13:12:36;4;2;
67892;PMS7003;54688;52.376;16.744;2023-07-13T13:15:39;2;2;
67892;PMS7003;54688;52.376;16.744;2023-07-13T13:18:41;2;2;
67892;PMS7003;54688;52.376;16.744;2023-07-13T13:21:45;1;1;
67892;PMS7003;54688;52.376;16.744;2023-07-13T13:24:48;2;2;
67892;PMS7003;54688;52.376;16.744;2023-07-13T13:27:50;2;2;
67892;PMS7003;54688;52.376;16.744;2023-07-13T13:30:52;1;1;
67892;PMS7003;54688;52.376;16.744;2023-07-13T13:33:55;3;2;
67892;PMS7003;54688;52.376;16.744;2023-07-13T13:36:57;2;2;
67892;PMS7003;54688;52.376;16.744;2023-07-13T13:39:59;2;2;
67892;PMS7003;54688;52.376;16.744;2023-07-13T13:43:02;2;2;
67892;PMS7003;54688;52.376;16.744;2023-07-13T13:46:13;0;0;
67892;PMS7003;54688;52.376;16.744;2023-07-13T13:49:18;2;2;
67892;PMS7003;54688;52.376;16.744;2023-07-13T13:52:21;2;2;
67892;PMS7003;54688;52.376;16.744;2023-07-13T13:55:24;1;1;
67892;PMS7003;54688;52.376;16.744;2023-07-13T13:58:26;1;1;
67892;PMS7003;54688;52.376;16.744;2023-07-13T14:01:29;1;1;
67892;PMS7003;54688;52.376;16.744;2023-07-13T14:04:32;2;2;
67892;PMS7003;54688;52.376;16.744;2023-07-13T14:07:35;1;1;
67892;PMS7003;54688;52.376;16.744;2023-07-13T14:10:37;2;2;
67892;PMS7003;54688;52.376;16.744;2023-07-13T14:13:43;1;0;
67892;PMS7003;54688;52.376;16.744;2023-07-13T14:16:46;3;3;
67892;PMS7003;54688;52.376;16.744;2023-07-13T14:19:49;2;2;
67892;PMS7003;54688;52.376;16.744;2023-07-13T14:22:52;2;1;
67892;PMS7003;54688;52.376;16.744;2023-07-13T14:25:54;2;2;
67892;PMS7003;54688;52.376;16.744;2023-07-13T14:28:57;5;2;
67892;PMS7003;54688;52.376;16.744;2023-07-13T14:31:59;2;2;
67892;PMS7003;54688;52.376;16.744;2023-07-13T14:35:02;1;1;
67892;PMS7003;54688;52.376;16.744;2023-07-13T14:38:08;1;1;
67892;PMS7003;54688;52.376;16.744;2023-07-13T14:41:11;5;2;
67892;PMS7003;54688;52.376;16.744;2023-07-13T14:44:15;1;1;
67892;PMS7003;54688;52.376;16.744;2023-07-13T14:47:17;2;2;
67892;PMS7003;54688;52.376;16.744;2023-07-13T14:53:19;3;3;
67892;PMS7003;54688;52.376;16.744;2023-07-13T14:56:22;2;1;
67892;PMS7003;54688;52.376;16.744;2023-07-13T14:59:24;1;1;
67892;PMS7003;54688;52.376;16.744;2023-07-13T15:02:30;2;2;
67892;PMS7003;54688;52.376;16.744;2023-07-13T15:05:33;3;1;
67892;PMS7003;54688;52.376;16.744;2023-07-13T15:11:39;1;0;
67892;PMS7003;54688;52.376;16.744;2023-07-13T15:14:41;2;0;
67892;PMS7003;54688;52.376;16.744;2023-07-13T15:17:45;3;0;
67892;PMS7003;54688;52.376;16.744;2023-07-13T15:20:49;5;0;
67892;PMS7003;54688;52.376;16.744;2023-07-13T15:23:52;1;1;
67892;PMS7003;54688;52.376;16.744;2023-07-13T15:26:54;1;1;
67892;PMS7003;54688;52.376;16.744;2023-07-13T15:29:57;1;0;
67892;PMS7003;54688;52.376;16.744;2023-07-13T15:33:05;2;2;
67892;PMS7003;54688;52.376;16.744;2023-07-13T15:36:11;2;0;
67892;PMS7003;54688;52.376;16.744;2023-07-13T15:39:15;1;1;
67892;PMS7003;54688;52.376;16.744;2023-07-13T15:42:19;3;1;
67892;PMS7003;54688;52.376;16.744;2023-07-13T15:45:24;1;1;
67892;PMS7003;54688;52.376;16.744;2023-07-13T15:48:26;2;1;
67892;PMS7003;54688;52.376;16.744;2023-07-13T15:51:30;1;1;
67892;PMS7003;54688;52.376;16.744;2023-07-13T15:57:32;1;0;
67892;PMS7003;54688;52.376;16.744;2023-07-13T16:00:34;1;1;
67892;PMS7003;54688;52.376;16.744;2023-07-13T16:03:37;1;1;
67892;PMS7003;54688;52.376;16.744;2023-07-13T16:06:40;1;1;
67892;PMS7003;54688;52.376;16.744;2023-07-13T16:09:43;1;0;
67892;PMS7003;54688;52.376;16.744;2023-07-13T16:12:46;0;0;
67892;PMS7003;54688;52.376;16.744;2023-07-13T16:15:48;1;1;
67892;PMS7003;54688;52.376;16.744;2023-07-13T16:18:51;3;0;
67892;PMS7003;54688;52.376;16.744;2023-07-13T16:21:54;1;1;
67892;PMS7003;54688;52.376;16.744;2023-07-13T16:24:56;2;1;
67892;PMS7003;54688;52.376;16.744;2023-07-13T16:27:59;1;1;
67892;PMS7003;54688;52.376;16.744;2023-07-13T16:31:01;1;1;
67892;PMS7003;54688;52.376;16.744;2023-07-13T16:34:03;2;2;
67892;PMS7003;54688;52.376;16.744;2023-07-13T16:37:13;3;1;
67892;PMS7003;54688;52.376;16.744;2023-07-13T16:40:21;0;0;
67892;PMS7003;54688;52.376;16.744;2023-07-13T16:43:23;1;1;
67892;PMS7003;54688;52.376;16.744;2023-07-13T16:46:26;1;1;
67892;PMS7003;54688;52.376;16.744;2023-07-13T16:49:30;2;2;
67892;PMS7003;54688;52.376;16.744;2023-07-13T16:52:32;2;2;
67892;PMS7003;54688;52.376;16.744;2023-07-13T16:55:35;3;1;
67892;PMS7003;54688;52.376;16.744;2023-07-13T16:58:37;1;1;
67892;PMS7003;54688;52.376;16.744;2023-07-13T17:01:39;2;2;
67892;PMS7003;54688;52.376;16.744;2023-07-13T17:04:42;2;2;
67892;PMS7003;54688;52.376;16.744;2023-07-13T17:07:44;4;4;
67892;PMS7003;54688;52.376;16.744;2023-07-13T17:10:47;2;2;
67892;PMS7003;54688;52.376;16.744;2023-07-13T17:13:50;1;1;
67892;PMS7003;54688;52.376;16.744;2023-07-13T17:16:53;3;2;
67892;PMS7003;54688;52.376;16.744;2023-07-13T17:19:57;1;1;
67892;PMS7003;54688;52.376;16.744;2023-07-13T17:23:00;2;1;
67892;PMS7003;54688;52.376;16.744;2023-07-13T17:26:02;2;1;
67892;PMS7003;54688;52.376;16.744;2023-07-13T17:29:04;1;1;
67892;PMS7003;54688;52.376;16.744;2023-07-13T17:32:12;2;2;
67892;PMS7003;54688;52.376;16.744;2023-07-13T17:35:21;2;2;
67892;PMS7003;54688;52.376;16.744;2023-07-13T17:38:29;2;2;
67892;PMS7003;54688;52.376;16.744;2023-07-13T17:41:31;4;3;
67892;PMS7003;54688;52.376;16.744;2023-07-13T17:44:34;3;2;
67892;PMS7003;54688;52.376;16.744;2023-07-13T17:47:37;5;3;
67892;PMS7003;54688;52.376;16.744;2023-07-13T17:50:38;4;2;
67892;PMS7003;54688;52.376;16.744;2023-07-13T17:53:41;5;2;
67892;PMS7003;54688;52.376;16.744;2023-07-13T17:56:43;2;2;
67892;PMS7003;54688;52.376;16.744;2023-07-13T17:59:46;2;1;
67892;PMS7003;54688;52.376;16.744;2023-07-13T18:02:48;3;3;
67892;PMS7003;54688;52.376;16.744;2023-07-13T18:05:51;4;3;
67892;PMS7003;54688;52.376;16.744;2023-07-13T18:08:55;4;3;
67892;PMS7003;54688;52.376;16.744;2023-07-13T18:11:57;4;3;
67892;PMS7003;54688;52.376;16.744;2023-07-13T18:15:00;3;3;
67892;PMS7003;54688;52.376;16.744;2023-07-13T18:18:02;2;2;
67892;PMS7003;54688;52.376;16.744;2023-07-13T18:21:04;3;3;
67892;PMS7003;54688;52.376;16.744;2023-07-13T18:24:08;5;4;
67892;PMS7003;54688;52.376;16.744;2023-07-13T18:27:11;2;2;
67892;PMS7003;54688;52.376;16.744;2023-07-13T18:30:15;4;3;
67892;PMS7003;54688;52.376;16.744;2023-07-13T18:33:20;4;4;
67892;PMS7003;54688;52.376;16.744;2023-07-13T18:36:24;4;3;
67892;PMS7003;54688;52.376;16.744;2023-07-13T18:39:26;3;3;
67892;PMS7003;54688;52.376;16.744;2023-07-13T18:42:29;3;3;
67892;PMS7003;54688;52.376;16.744;2023-07-13T18:45:31;3;3;
67892;PMS7003;54688;52.376;16.744;2023-07-13T18:48:33;2;2;
67892;PMS7003;54688;52.376;16.744;2023-07-13T18:51:36;4;4;
67892;PMS7003;54688;52.376;16.744;2023-07-13T18:54:38;5;4;
67892;PMS7003;54688;52.376;16.744;2023-07-13T18:57:41;6;5;
67892;PMS7003;54688;52.376;16.744;2023-07-13T19:00:43;3;3;
67892;PMS7003;54688;52.376;16.744;2023-07-13T19:03:46;4;4;
67892;PMS7003;54688;52.376;16.744;2023-07-13T19:06:48;3;3;
67892;PMS7003;54688;52.376;16.744;2023-07-13T19:09:52;5;4;
67892;PMS7003;54688;52.376;16.744;2023-07-13T19:15:56;5;4;
67892;PMS7003;54688;52.376;16.744;2023-07-13T19:18:58;5;4;
67892;PMS7003;54688;52.376;16.744;2023-07-13T19:22:01;6;4;
67892;PMS7003;54688;52.376;16.744;2023-07-13T19:25:03;5;5;
67892;PMS7003;54688;52.376;16.744;2023-07-13T19:28:23;7;4;
67892;PMS7003;54688;52.376;16.744;2023-07-13T19:31:28;6;5;
67892;PMS7003;54688;52.376;16.744;2023-07-13T19:34:31;6;5;
67892;PMS7003;54688;52.376;16.744;2023-07-13T19:37:34;5;5;
67892;PMS7003;54688;52.376;16.744;2023-07-13T19:40:36;5;5;
67892;PMS7003;54688;52.376;16.744;2023-07-13T19:46:44;7;5;
67892;PMS7003;54688;52.376;16.744;2023-07-13T19:49:48;8;4;
67892;PMS7003;54688;52.376;16.744;2023-07-13T19:52:52;8;5;
67892;PMS7003;54688;52.376;16.744;2023-07-13T19:55:54;4;4;
67892;PMS7003;54688;52.376;16.744;2023-07-13T19:58:57;6;6;
67892;PMS7003;54688;52.376;16.744;2023-07-13T20:02:00;8;5;
67892;PMS7003;54688;52.376;16.744;2023-07-13T20:05:05;9;9;
67892;PMS7003;54688;52.376;16.744;2023-07-13T20:08:17;9;6;
67892;PMS7003;54688;52.376;16.744;2023-07-13T20:11:20;5;5;
67892;PMS7003;54688;52.376;16.744;2023-07-13T20:14:24;9;7;
67892;PMS7003;54688;52.376;16.744;2023-07-13T20:17:31;5;5;
67892;PMS7003;54688;52.376;16.744;2023-07-13T20:20:36;5;5;
67892;PMS7003;54688;52.376;16.744;2023-07-13T20:23:39;8;6;
67892;PMS7003;54688;52.376;16.744;2023-07-13T20:26:42;6;6;
67892;PMS7003;54688;52.376;16.744;2023-07-13T20:29:44;7;7;
67892;PMS7003;54688;52.376;16.744;2023-07-13T20:32:47;5;5;
67892;PMS7003;54688;52.376;16.744;2023-07-13T20:35:50;6;4;
67892;PMS7003;54688;52.376;16.744;2023-07-13T20:38:53;5;5;
67892;PMS7003;54688;52.376;16.744;2023-07-13T20:41:55;9;7;
67892;PMS7003;54688;52.376;16.744;2023-07-13T20:44:56;6;5;
67892;PMS7003;54688;52.376;16.744;2023-07-13T20:48:07;7;5;
67892;PMS7003;54688;52.376;16.744;2023-07-13T20:51:11;8;6;
67892;PMS7003;54688;52.376;16.744;2023-07-13T20:54:13;5;4;
67892;PMS7003;54688;52.376;16.744;2023-07-13T20:57:15;4;4;
67892;PMS7003;54688;52.376;16.744;2023-07-13T21:00:20;4;4;
67892;PMS7003;54688;52.376;16.744;2023-07-13T21:03:25;7;6;
67892;PMS7003;54688;52.376;16.744;2023-07-13T21:06:28;7;7;
67892;PMS7003;54688;52.376;16.744;2023-07-13T21:09:31;5;4;